sensor_id;sensor_type;location;lat;lon;timestamp;temperature;humidity
9448;DHT22;4762;48.128;11.376;2023-08-21T00:00:02;20.70;99.90
9448;DHT22;4762;48.128;11.376;2023-08-21T00:02:04;20.70;99.90
9448;DHT22;4762;48.128;11.376;2023-08-21T00:04:06;20.70;99.90
9448;DHT22;4762;48.128;11.376;2023-08-21T00:06:08;20.60;99.90
9448;DHT22;4762;48.128;11.376;2023-08-21T00:08:10;20.60;99.90
9448;DHT22;4762;48.128;11.376;2023-08-21T00:10:13;20.60;99.90
9448;DHT22;4762;48.128;11.376;2023-08-21T00:12:16;20.60;99.90
9448;DHT22;4762;48.128;11.376;2023-08-21T00:14:18;20.50;99.90
9448;DHT22;4762;48.128;11.376;2023-08-21T00:16:22;20.60;99.90
9448;DHT22;4762;48.128;11.376;2023-08-21T00:18:24;20.40;99.90
9448;DHT22;4762;48.128;11.376;2023-08-21T00:20:26;20.30;99.90
9448;DHT22;4762;48.128;11.376;2023-08-21T00:22:28;20.30;99.90
9448;DHT22;4762;48.128;11.376;2023-08-21T00:24:31;20.20;99.90
9448;DHT22;4762;48.128;11.376;2023-08-21T00:26:33;20.30;99.90
9448;DHT22;4762;48.128;11.376;2023-08-21T00:28:35;20.10;99.90
9448;DHT22;4762;48.128;11.376;2023-08-21T00:30:37;20.10;99.90
9448;DHT22;4762;48.128;11.376;2023-08-21T00:32:40;20.20;99.90
9448;DHT22;4762;48.128;11.376;2023-08-21T00:34:42;20.20;99.90
9448;DHT22;4762;48.128;11.376;2023-08-21T00:36:44;20.20;99.90
9448;DHT22;4762;48.128;11.376;2023-08-21T00:38:46;20.20;99.90
9448;DHT22;4762;48.128;11.376;2023-08-21T00:40:48;20.20;99.90
9448;DHT22;4762;48.128;11.376;2023-08-21T00:42:51;20.20;99.90
9448;DHT22;4762;48.128;11.376;2023-08-21T00:44:53;20.30;99.90
9448;DHT22;4762;48.128;11.376;2023-08-21T00:46:55;20.30;99.90
9448;DHT22;4762;48.128;11.376;2023-08-21T00:48:57;20.20;99.90
9448;DHT22;4762;48.128;11.376;2023-08-21T00:50:59;20.10;99.90
9448;DHT22;4762;48.128;11.376;2023-08-21T00:53:02;20.10;99.90
9448;DHT22;4762;48.128;11.376;2023-08-21T00:55:04;20.10;99.90
9448;DHT22;4762;48.128;11.376;2023-08-21T00:57:06;20.10;99.90
9448;DHT22;4762;48.128;11.376;2023-08-21T00:59:08;20.00;99.90
9448;DHT22;4762;48.128;11.376;2023-08-21T01:01:12;20.00;99.90
9448;DHT22;4762;48.128;11.376;2023-08-21T01:03:13;20.00;99.90
9448;DHT22;4762;48.128;11.376;2023-08-21T01:05:17;20.00;99.90
9448;DHT22;4762;48.128;11.376;2023-08-21T01:07:17;20.10;99.90
9448;DHT22;4762;48.128;11.376;2023-08-21T01:09:31;20.10;99.90
9448;DHT22;4762;48.128;11.376;2023-08-21T01:11:35;19.90;99.90
9448;DHT22;4762;48.128;11.376;2023-08-21T01:13:48;19.80;99.90
9448;DHT22;4762;48.128;11.376;2023-08-21T01:15:50;19.80;99.90
9448;DHT22;4762;48.128;11.376;2023-08-21T01:17:52;19.80;99.90
9448;DHT22;4762;48.128;11.376;2023-08-21T01:19:54;19.70;99.90
9448;DHT22;4762;48.128;11.376;2023-08-21T01:21:56;19.80;99.90
9448;DHT22;4762;48.128;11.376;2023-08-21T01:23:58;19.80;99.90
9448;DHT22;4762;48.128;11.376;2023-08-21T01:26:00;19.70;99.90
9448;DHT22;4762;48.128;11.376;2023-08-21T01:28:03;19.70;99.90
9448;DHT22;4762;48.128;11.376;2023-08-21T01:30:06;19.70;99.90
9448;DHT22;4762;48.128;11.376;2023-08-21T01:32:14;19.70;99.90
9448;DHT22;4762;48.128;11.376;2023-08-21T01:34:16;19.70;99.90
9448;DHT22;4762;48.128;11.376;2023-08-21T01:36:18;19.70;99.90
9448;DHT22;4762;48.128;11.376;2023-08-21T01:38:20;19.70;99.90
9448;DHT22;4762;48.128;11.376;2023-08-21T01:40:23;19.70;99.90
9448;DHT22;4762;48.128;11.376;2023-08-21T01:42:24;19.70;99.90
9448;DHT22;4762;48.128;11.376;2023-08-21T01:44:27;19.70;99.90
9448;DHT22;4762;48.128;11.376;2023-08-21T01:46:29;19.70;99.90
9448;DHT22;4762;48.128;11.376;2023-08-21T01:48:31;19.60;99.90
9448;DHT22;4762;48.128;11.376;2023-08-21T01:50:33;19.60;99.90
9448;DHT22;4762;48.128;11.376;2023-08-21T01:52:36;19.60;99.90
9448;DHT22;4762;48.128;11.376;2023-08-21T01:54:38;19.60;99.90
9448;DHT22;4762;48.128;11.376;2023-08-21T01:56:40;19.70;99.90
9448;DHT22;4762;48.128;11.376;2023-08-21T01:58:42;19.70;99.90
9448;DHT22;4762;48.128;11.376;2023-08-21T02:00:46;19.60;99.90
9448;DHT22;4762;48.128;11.376;2023-08-21T02:02:48;19.60;99.90
9448;DHT22;4762;48.128;11.376;2023-08-21T02:04:50;19.50;99.90
9448;DHT22;4762;48.128;11.376;2023-08-21T02:06:52;19.40;99.90
9448;DHT22;4762;48.128;11.376;2023-08-21T02:08:54;19.50;99.90
9448;DHT22;4762;48.128;11.376;2023-08-21T02:10:56;19.50;99.90
9448;DHT22;4762;48.128;11.376;2023-08-21T02:12:59;19.50;99.90
9448;DHT22;4762;48.128;11.376;2023-08-21T02:15:01;19.40;99.90
9448;DHT22;4762;48.128;11.376;2023-08-21T02:17:03;19.50;99.90
9448;DHT22;4762;48.128;11.376;2023-08-21T02:19:05;19.40;99.90
9448;DHT22;4762;48.128;11.376;2023-08-21T02:21:07;19.40;99.90
9448;DHT22;4762;48.128;11.376;2023-08-21T02:23:10;19.40;99.90
9448;DHT22;4762;48.128;11.376;2023-08-21T02:25:12;19.40;99.90
9448;DHT22;4762;48.128;11.376;2023-08-21T02:27:14;19.40;99.90
9448;DHT22;4762;48.128;11.376;2023-08-21T02:29:16;19.40;99.90
9448;DHT22;4762;48.128;11.376;2023-08-21T02:31:18;19.30;99.90
9448;DHT22;4762;48.128;11.376;2023-08-21T02:33:21;19.30;99.90
9448;DHT22;4762;48.128;11.376;2023-08-21T02:35:23;19.20;99.90
9448;DHT22;4762;48.128;11.376;2023-08-21T02:37:25;19.20;99.90
9448;DHT22;4762;48.128;11.376;2023-08-21T02:39:27;19.10;99.90
9448;DHT22;4762;48.128;11.376;2023-08-21T02:41:29;19.10;99.90
9448;DHT22;4762;48.128;11.376;2023-08-21T02:43:33;19.10;99.90
9448;DHT22;4762;48.128;11.376;2023-08-21T02:45:35;19.10;99.90
9448;DHT22;4762;48.128;11.376;2023-08-21T02:47:37;19.10;99.90
9448;DHT22;4762;48.128;11.376;2023-08-21T02:49:39;19.00;99.90
9448;DHT22;4762;48.128;11.376;2023-08-21T02:51:42;19.00;99.90
9448;DHT22;4762;48.128;11.376;2023-08-21T02:53:44;19.00;99.90
9448;DHT22;4762;48.128;11.376;2023-08-21T02:55:46;19.00;99.90
9448;DHT22;4762;48.128;11.376;2023-08-21T02:57:48;18.90;99.90
9448;DHT22;4762;48.128;11.376;2023-08-21T02:59:51;18.90;99.90
9448;DHT22;4762;48.128;11.376;2023-08-21T03:01:53;18.90;99.90
9448;DHT22;4762;48.128;11.376;2023-08-21T03:03:55;18.90;99.90
9448;DHT22;4762;48.128;11.376;2023-08-21T03:05:58;18.90;99.90
9448;DHT22;4762;48.128;11.376;2023-08-21T03:08:00;18.90;99.90
9448;DHT22;4762;48.128;11.376;2023-08-21T03:10:02;18.90;99.90
9448;DHT22;4762;48.128;11.376;2023-08-21T03:12:05;18.90;99.90
9448;DHT22;4762;48.128;11.376;2023-08-21T03:14:07;18.90;99.90
9448;DHT22;4762;48.128;11.376;2023-08-21T03:16:09;18.80;99.90
9448;DHT22;4762;48.128;11.376;2023-08-21T03:18:11;18.80;99.90
9448;DHT22;4762;48.128;11.376;2023-08-21T03:20:13;18.70;99.90
9448;DHT22;4762;48.128;11.376;2023-08-21T03:22:16;18.70;99.90
9448;DHT22;4762;48.128;11.376;2023-08-21T03:24:18;18.80;99.90
9448;DHT22;4762;48.128;11.376;2023-08-21T03:26:20;18.70;99.90
9448;DHT22;4762;48.128;11.376;2023-08-21T03:28:23;18.80;99.90
9448;DHT22;4762;48.128;11.376;2023-08-21T03:30:25;18.80;99.90
9448;DHT22;4762;48.128;11.376;2023-08-21T03:32:27;18.80;99.90
9448;DHT22;4762;48.128;11.376;2023-08-21T03:34:29;18.80;99.90
9448;DHT22;4762;48.128;11.376;2023-08-21T03:36:31;18.80;99.90
9448;DHT22;4762;48.128;11.376;2023-08-21T03:38:34;18.80;99.90
9448;DHT22;4762;48.128;11.376;2023-08-21T03:40:37;18.80;99.90
9448;DHT22;4762;48.128;11.376;2023-08-21T03:42:38;18.70;99.90
9448;DHT22;4762;48.128;11.376;2023-08-21T03:44:40;18.70;99.90
9448;DHT22;4762;48.128;11.376;2023-08-21T03:46:42;18.70;99.90
9448;DHT22;4762;48.128;11.376;2023-08-21T03:48:45;18.70;99.90
9448;DHT22;4762;48.128;11.376;2023-08-21T03:50:47;18.60;99.90
9448;DHT22;4762;48.128;11.376;2023-08-21T03:52:49;18.60;99.90
9448;DHT22;4762;48.128;11.376;2023-08-21T03:54:51;18.50;99.90
9448;DHT22;4762;48.128;11.376;2023-08-21T03:56:54;18.50;99.90
9448;DHT22;4762;48.128;11.376;2023-08-21T03:58:56;18.50;99.90
9448;DHT22;4762;48.128;11.376;2023-08-21T04:00:58;18.40;99.90
9448;DHT22;4762;48.128;11.376;2023-08-21T04:03:00;18.40;99.90
9448;DHT22;4762;48.128;11.376;2023-08-21T04:05:02;18.40;99.90
9448;DHT22;4762;48.128;11.376;2023-08-21T04:07:05;18.30;99.90
9448;DHT22;4762;48.128;11.376;2023-08-21T04:09:07;18.30;99.90
9448;DHT22;4762;48.128;11.376;2023-08-21T04:11:09;18.30;99.90
9448;DHT22;4762;48.128;11.376;2023-08-21T04:13:11;18.30;99.90
9448;DHT22;4762;48.128;11.376;2023-08-21T04:15:13;18.30;99.90
9448;DHT22;4762;48.128;11.376;2023-08-21T04:17:20;18.30;99.90
9448;DHT22;4762;48.128;11.376;2023-08-21T04:19:18;18.30;99.90
9448;DHT22;4762;48.128;11.376;2023-08-21T04:21:20;18.30;99.90
9448;DHT22;4762;48.128;11.376;2023-08-21T04:23:22;18.30;99.90
9448;DHT22;4762;48.128;11.376;2023-08-21T04:25:24;18.30;99.90
9448;DHT22;4762;48.128;11.376;2023-08-21T04:27:27;18.40;99.90
9448;DHT22;4762;48.128;11.376;2023-08-21T04:29:29;18.30;99.90
9448;DHT22;4762;48.128;11.376;2023-08-21T04:31:31;18.30;99.90
9448;DHT22;4762;48.128;11.376;2023-08-21T04:33:33;18.40;99.90
9448;DHT22;4762;48.128;11.376;2023-08-21T04:35:37;18.40;99.90
9448;DHT22;4762;48.128;11.376;2023-08-21T04:37:42;18.40;99.90
9448;DHT22;4762;48.128;11.376;2023-08-21T04:39:41;18.40;99.90
9448;DHT22;4762;48.128;11.376;2023-08-21T04:41:43;18.40;99.90
9448;DHT22;4762;48.128;11.376;2023-08-21T04:43:45;18.50;99.90
9448;DHT22;4762;48.128;11.376;2023-08-21T04:45:48;18.40;99.90
9448;DHT22;4762;48.128;11.376;2023-08-21T04:47:49;18.40;99.90
9448;DHT22;4762;48.128;11.376;2023-08-21T04:49:52;18.50;99.90
9448;DHT22;4762;48.128;11.376;2023-08-21T04:51:54;18.50;99.90
9448;DHT22;4762;48.128;11.376;2023-08-21T04:53:56;18.50;99.90
9448;DHT22;4762;48.128;11.376;2023-08-21T04:55:59;18.50;99.90
9448;DHT22;4762;48.128;11.376;2023-08-21T04:58:00;18.50;99.90
9448;DHT22;4762;48.128;11.376;2023-08-21T05:00:03;18.40;99.90
9448;DHT22;4762;48.128;11.376;2023-08-21T05:02:05;18.50;99.90
9448;DHT22;4762;48.128;11.376;2023-08-21T05:04:07;18.50;99.90
9448;DHT22;4762;48.128;11.376;2023-08-21T05:06:10;18.50;99.90
9448;DHT22;4762;48.128;11.376;2023-08-21T05:08:12;18.50;99.90
9448;DHT22;4762;48.128;11.376;2023-08-21T05:10:14;18.50;99.90
9448;DHT22;4762;48.128;11.376;2023-08-21T05:12:16;18.60;99.90
9448;DHT22;4762;48.128;11.376;2023-08-21T05:14:19;18.60;99.90
9448;DHT22;4762;48.128;11.376;2023-08-21T05:16:23;18.60;99.90
9448;DHT22;4762;48.128;11.376;2023-08-21T05:18:26;18.70;99.90
9448;DHT22;4762;48.128;11.376;2023-08-21T05:20:28;18.80;99.90
9448;DHT22;4762;48.128;11.376;2023-08-21T05:22:31;18.90;99.90
9448;DHT22;4762;48.128;11.376;2023-08-21T05:24:33;18.90;99.90
9448;DHT22;4762;48.128;11.376;2023-08-21T05:26:36;19.00;99.90
9448;DHT22;4762;48.128;11.376;2023-08-21T05:28:38;19.00;99.90
9448;DHT22;4762;48.128;11.376;2023-08-21T05:30:40;19.10;99.90
9448;DHT22;4762;48.128;11.376;2023-08-21T05:32:43;19.30;99.90
9448;DHT22;4762;48.128;11.376;2023-08-21T05:34:45;19.50;99.90
9448;DHT22;4762;48.128;11.376;2023-08-21T05:36:47;19.60;99.90
9448;DHT22;4762;48.128;11.376;2023-08-21T05:38:49;19.60;99.90
9448;DHT22;4762;48.128;11.376;2023-08-21T05:40:52;19.70;99.90
9448;DHT22;4762;48.128;11.376;2023-08-21T05:42:54;19.70;99.90
9448;DHT22;4762;48.128;11.376;2023-08-21T05:44:56;19.80;99.90
9448;DHT22;4762;48.128;11.376;2023-08-21T05:46:58;20.00;99.90
9448;DHT22;4762;48.128;11.376;2023-08-21T05:49:00;20.10;99.90
9448;DHT22;4762;48.128;11.376;2023-08-21T05:51:03;20.20;99.90
9448;DHT22;4762;48.128;11.376;2023-08-21T05:53:05;20.30;99.90
9448;DHT22;4762;48.128;11.376;2023-08-21T05:55:07;20.40;99.90
9448;DHT22;4762;48.128;11.376;2023-08-21T05:57:09;20.50;99.90
9448;DHT22;4762;48.128;11.376;2023-08-21T05:59:11;20.60;99.90
9448;DHT22;4762;48.128;11.376;2023-08-21T06:01:14;20.90;99.90
9448;DHT22;4762;48.128;11.376;2023-08-21T06:03:16;21.00;99.90
9448;DHT22;4762;48.128;11.376;2023-08-21T06:05:18;21.10;99.90
9448;DHT22;4762;48.128;11.376;2023-08-21T06:07:20;21.20;99.90
9448;DHT22;4762;48.128;11.376;2023-08-21T06:09:22;21.30;99.90
9448;DHT22;4762;48.128;11.376;2023-08-21T06:11:25;21.30;99.90
9448;DHT22;4762;48.128;11.376;2023-08-21T06:13:27;21.40;99.90
9448;DHT22;4762;48.128;11.376;2023-08-21T06:15:29;21.50;99.90
9448;DHT22;4762;48.128;11.376;2023-08-21T06:17:31;21.60;99.90
9448;DHT22;4762;48.128;11.376;2023-08-21T06:19:33;21.70;99.90
9448;DHT22;4762;48.128;11.376;2023-08-21T06:21:36;22.00;99.90
9448;DHT22;4762;48.128;11.376;2023-08-21T06:23:38;22.10;99.90
9448;DHT22;4762;48.128;11.376;2023-08-21T06:25:41;22.10;99.90
9448;DHT22;4762;48.128;11.376;2023-08-21T06:27:42;22.70;99.90
9448;DHT22;4762;48.128;11.376;2023-08-21T06:29:45;24.40;99.90
9448;DHT22;4762;48.128;11.376;2023-08-21T06:31:47;25.90;93.40
9448;DHT22;4762;48.128;11.376;2023-08-21T06:33:49;26.50;90.40
9448;DHT22;4762;48.128;11.376;2023-08-21T06:35:52;27.30;85.40
9448;DHT22;4762;48.128;11.376;2023-08-21T06:37:54;27.70;81.00
9448;DHT22;4762;48.128;11.376;2023-08-21T06:39:56;27.90;76.30
9448;DHT22;4762;48.128;11.376;2023-08-21T06:41:58;27.90;73.80
9448;DHT22;4762;48.128;11.376;2023-08-21T06:44:01;28.10;73.40
9448;DHT22;4762;48.128;11.376;2023-08-21T06:46:03;28.70;70.60
9448;DHT22;4762;48.128;11.376;2023-08-21T06:48:05;29.10;71.90
9448;DHT22;4762;48.128;11.376;2023-08-21T06:50:07;29.50;65.90
9448;DHT22;4762;48.128;11.376;2023-08-21T06:52:10;29.30;64.00
9448;DHT22;4762;48.128;11.376;2023-08-21T06:54:12;29.10;65.10
9448;DHT22;4762;48.128;11.376;2023-08-21T06:56:14;29.40;65.90
9448;DHT22;4762;48.128;11.376;2023-08-21T06:58:16;29.40;63.50
9448;DHT22;4762;48.128;11.376;2023-08-21T07:00:18;29.30;63.20
9448;DHT22;4762;48.128;11.376;2023-08-21T07:02:21;29.00;64.00
9448;DHT22;4762;48.128;11.376;2023-08-21T07:04:23;29.20;63.40
9448;DHT22;4762;48.128;11.376;2023-08-21T07:06:27;29.20;62.00
9448;DHT22;4762;48.128;11.376;2023-08-21T07:08:28;29.20;62.40
9448;DHT22;4762;48.128;11.376;2023-08-21T07:10:29;29.60;63.60
9448;DHT22;4762;48.128;11.376;2023-08-21T07:12:32;30.10;60.90
9448;DHT22;4762;48.128;11.376;2023-08-21T07:14:34;30.10;59.30
9448;DHT22;4762;48.128;11.376;2023-08-21T07:16:36;30.20;60.60
9448;DHT22;4762;48.128;11.376;2023-08-21T07:18:38;29.60;58.30
9448;DHT22;4762;48.128;11.376;2023-08-21T07:20:40;30.20;60.60
9448;DHT22;4762;48.128;11.376;2023-08-21T07:22:43;30.50;57.40
9448;DHT22;4762;48.128;11.376;2023-08-21T07:24:45;30.50;57.40
9448;DHT22;4762;48.128;11.376;2023-08-21T07:26:47;30.40;56.90
9448;DHT22;4762;48.128;11.376;2023-08-21T07:28:49;30.40;57.90
9448;DHT22;4762;48.128;11.376;2023-08-21T07:30:55;30.80;58.30
9448;DHT22;4762;48.128;11.376;2023-08-21T07:32:57;31.10;56.40
9448;DHT22;4762;48.128;11.376;2023-08-21T07:35:00;31.00;54.80
9448;DHT22;4762;48.128;11.376;2023-08-21T07:37:02;31.20;54.20
9448;DHT22;4762;48.128;11.376;2023-08-21T07:39:04;31.10;55.80
9448;DHT22;4762;48.128;11.376;2023-08-21T07:41:07;31.90;52.80
9448;DHT22;4762;48.128;11.376;2023-08-21T07:43:08;31.80;52.10
9448;DHT22;4762;48.128;11.376;2023-08-21T07:45:11;31.90;51.90
9448;DHT22;4762;48.128;11.376;2023-08-21T07:47:13;32.10;51.60
9448;DHT22;4762;48.128;11.376;2023-08-21T07:49:15;32.40;49.30
9448;DHT22;4762;48.128;11.376;2023-08-21T07:51:17;32.90;51.00
9448;DHT22;4762;48.128;11.376;2023-08-21T07:53:19;32.80;50.00
9448;DHT22;4762;48.128;11.376;2023-08-21T07:55:22;32.60;49.10
9448;DHT22;4762;48.128;11.376;2023-08-21T07:57:24;32.50;49.30
9448;DHT22;4762;48.128;11.376;2023-08-21T07:59:26;32.40;49.40
9448;DHT22;4762;48.128;11.376;2023-08-21T08:01:28;32.40;49.30
9448;DHT22;4762;48.128;11.376;2023-08-21T08:03:30;32.10;49.40
9448;DHT22;4762;48.128;11.376;2023-08-21T08:05:33;32.30;50.70
9448;DHT22;4762;48.128;11.376;2023-08-21T08:07:35;32.40;48.20
9448;DHT22;4762;48.128;11.376;2023-08-21T08:09:37;32.80;47.30
9448;DHT22;4762;48.128;11.376;2023-08-21T08:11:39;32.30;48.20
9448;DHT22;4762;48.128;11.376;2023-08-21T08:13:41;32.60;48.20
9448;DHT22;4762;48.128;11.376;2023-08-21T08:15:44;32.60;47.30
9448;DHT22;4762;48.128;11.376;2023-08-21T08:17:46;33.30;48.60
9448;DHT22;4762;48.128;11.376;2023-08-21T08:19:48;33.80;48.60
9448;DHT22;4762;48.128;11.376;2023-08-21T08:21:50;34.20;44.50
9448;DHT22;4762;48.128;11.376;2023-08-21T08:23:52;33.60;45.80
9448;DHT22;4762;48.128;11.376;2023-08-21T08:25:55;33.90;45.50
9448;DHT22;4762;48.128;11.376;2023-08-21T08:27:57;33.30;45.20
9448;DHT22;4762;48.128;11.376;2023-08-21T08:29:59;34.00;45.10
9448;DHT22;4762;48.128;11.376;2023-08-21T08:32:01;34.60;45.80
9448;DHT22;4762;48.128;11.376;2023-08-21T08:34:04;33.80;46.50
9448;DHT22;4762;48.128;11.376;2023-08-21T08:36:06;34.50;45.20
9448;DHT22;4762;48.128;11.376;2023-08-21T08:38:08;34.60;43.10
9448;DHT22;4762;48.128;11.376;2023-08-21T08:40:10;34.50;43.60
9448;DHT22;4762;48.128;11.376;2023-08-21T08:42:13;34.70;44.50
9448;DHT22;4762;48.128;11.376;2023-08-21T08:44:15;34.60;42.50
9448;DHT22;4762;48.128;11.376;2023-08-21T08:46:17;34.20;45.00
9448;DHT22;4762;48.128;11.376;2023-08-21T08:48:20;34.60;41.80
9448;DHT22;4762;48.128;11.376;2023-08-21T08:50:22;34.50;39.70
9448;DHT22;4762;48.128;11.376;2023-08-21T08:52:26;34.50;40.80
9448;DHT22;4762;48.128;11.376;2023-08-21T08:54:27;33.80;41.90
9448;DHT22;4762;48.128;11.376;2023-08-21T08:56:29;34.60;41.80
9448;DHT22;4762;48.128;11.376;2023-08-21T08:58:32;34.10;40.40
9448;DHT22;4762;48.128;11.376;2023-08-21T09:00:34;35.10;40.70
9448;DHT22;4762;48.128;11.376;2023-08-21T09:02:36;35.90;40.10
9448;DHT22;4762;48.128;11.376;2023-08-21T09:04:38;35.80;39.60
9448;DHT22;4762;48.128;11.376;2023-08-21T09:06:41;35.80;39.60
9448;DHT22;4762;48.128;11.376;2023-08-21T09:08:58;35.50;38.50
9448;DHT22;4762;48.128;11.376;2023-08-21T09:11:01;36.20;39.30
9448;DHT22;4762;48.128;11.376;2023-08-21T09:13:08;36.50;39.40
9448;DHT22;4762;48.128;11.376;2023-08-21T09:15:07;36.60;38.70
9448;DHT22;4762;48.128;11.376;2023-08-21T09:17:09;36.70;38.40
9448;DHT22;4762;48.128;11.376;2023-08-21T09:19:11;35.50;37.50
9448;DHT22;4762;48.128;11.376;2023-08-21T09:21:17;35.10;39.90
9448;DHT22;4762;48.128;11.376;2023-08-21T09:23:18;34.80;38.60
9448;DHT22;4762;48.128;11.376;2023-08-21T09:25:20;34.50;41.40
9448;DHT22;4762;48.128;11.376;2023-08-21T09:27:23;34.90;40.00
9448;DHT22;4762;48.128;11.376;2023-08-21T09:29:25;35.00;40.50
9448;DHT22;4762;48.128;11.376;2023-08-21T09:31:31;35.20;40.60
9448;DHT22;4762;48.128;11.376;2023-08-21T09:33:33;36.20;39.10
9448;DHT22;4762;48.128;11.376;2023-08-21T09:35:35;36.10;38.40
9448;DHT22;4762;48.128;11.376;2023-08-21T09:37:37;36.00;40.20
9448;DHT22;4762;48.128;11.376;2023-08-21T09:39:40;35.20;38.50
9448;DHT22;4762;48.128;11.376;2023-08-21T09:41:42;33.80;40.60
9448;DHT22;4762;48.128;11.376;2023-08-21T09:43:44;33.60;41.60
9448;DHT22;4762;48.128;11.376;2023-08-21T09:45:47;34.10;41.90
9448;DHT22;4762;48.128;11.376;2023-08-21T09:47:49;34.40;39.70
9448;DHT22;4762;48.128;11.376;2023-08-21T09:49:51;35.20;38.30
9448;DHT22;4762;48.128;11.376;2023-08-21T09:51:54;34.40;39.00
9448;DHT22;4762;48.128;11.376;2023-08-21T09:53:56;35.20;38.90
9448;DHT22;4762;48.128;11.376;2023-08-21T09:55:58;35.80;39.50
9448;DHT22;4762;48.128;11.376;2023-08-21T09:58:01;35.30;38.40
9448;DHT22;4762;48.128;11.376;2023-08-21T10:00:03;35.70;38.20
9448;DHT22;4762;48.128;11.376;2023-08-21T10:02:07;36.40;38.60
9448;DHT22;4762;48.128;11.376;2023-08-21T10:04:09;36.00;38.90
9448;DHT22;4762;48.128;11.376;2023-08-21T10:06:11;36.10;37.80
9448;DHT22;4762;48.128;11.376;2023-08-21T10:08:16;36.80;37.20
9448;DHT22;4762;48.128;11.376;2023-08-21T10:10:17;35.30;38.70
9448;DHT22;4762;48.128;11.376;2023-08-21T10:12:19;34.90;39.60
9448;DHT22;4762;48.128;11.376;2023-08-21T10:14:22;34.70;38.70
9448;DHT22;4762;48.128;11.376;2023-08-21T10:16:24;35.90;39.30
9448;DHT22;4762;48.128;11.376;2023-08-21T10:18:31;37.00;38.60
9448;DHT22;4762;48.128;11.376;2023-08-21T10:20:32;37.40;35.30
9448;DHT22;4762;48.128;11.376;2023-08-21T10:22:41;36.40;35.10
9448;DHT22;4762;48.128;11.376;2023-08-21T10:24:41;36.80;37.10
9448;DHT22;4762;48.128;11.376;2023-08-21T10:26:43;36.50;36.70
9448;DHT22;4762;48.128;11.376;2023-08-21T10:28:49;36.70;37.40
9448;DHT22;4762;48.128;11.376;2023-08-21T10:30:51;37.10;36.10
9448;DHT22;4762;48.128;11.376;2023-08-21T10:32:54;37.00;36.00
9448;DHT22;4762;48.128;11.376;2023-08-21T10:34:56;36.00;37.00
9448;DHT22;4762;48.128;11.376;2023-08-21T10:37:05;35.50;39.00
9448;DHT22;4762;48.128;11.376;2023-08-21T10:39:20;36.70;37.30
9448;DHT22;4762;48.128;11.376;2023-08-21T10:41:26;36.70;38.30
9448;DHT22;4762;48.128;11.376;2023-08-21T10:43:43;35.90;35.80
9448;DHT22;4762;48.128;11.376;2023-08-21T10:45:54;36.70;36.00
9448;DHT22;4762;48.128;11.376;2023-08-21T10:47:57;37.10;33.70
9448;DHT22;4762;48.128;11.376;2023-08-21T10:50:00;36.80;34.50
9448;DHT22;4762;48.128;11.376;2023-08-21T10:52:01;37.60;34.10
9448;DHT22;4762;48.128;11.376;2023-08-21T10:56:11;37.80;33.90
9448;DHT22;4762;48.128;11.376;2023-08-21T10:58:15;37.30;36.70
9448;DHT22;4762;48.128;11.376;2023-08-21T11:00:17;36.50;35.20
9448;DHT22;4762;48.128;11.376;2023-08-21T11:02:19;36.40;36.70
9448;DHT22;4762;48.128;11.376;2023-08-21T11:04:21;36.20;37.00
9448;DHT22;4762;48.128;11.376;2023-08-21T11:06:24;36.50;35.70
9448;DHT22;4762;48.128;11.376;2023-08-21T11:08:26;36.30;35.50
9448;DHT22;4762;48.128;11.376;2023-08-21T11:10:30;36.80;36.30
9448;DHT22;4762;48.128;11.376;2023-08-21T11:12:30;37.20;34.60
9448;DHT22;4762;48.128;11.376;2023-08-21T11:14:32;37.70;35.40
9448;DHT22;4762;48.128;11.376;2023-08-21T11:16:35;36.90;35.70
9448;DHT22;4762;48.128;11.376;2023-08-21T11:18:37;37.40;35.20
9448;DHT22;4762;48.128;11.376;2023-08-21T11:20:40;37.60;34.10
9448;DHT22;4762;48.128;11.376;2023-08-21T11:22:42;38.70;33.00
9448;DHT22;4762;48.128;11.376;2023-08-21T11:24:45;38.70;33.10
9448;DHT22;4762;48.128;11.376;2023-08-21T11:26:47;38.60;33.60
9448;DHT22;4762;48.128;11.376;2023-08-21T11:28:49;38.70;31.90
9448;DHT22;4762;48.128;11.376;2023-08-21T11:30:51;36.90;33.40
9448;DHT22;4762;48.128;11.376;2023-08-21T11:33:05;36.40;32.60
9448;DHT22;4762;48.128;11.376;2023-08-21T11:35:07;36.40;35.20
9448;DHT22;4762;48.128;11.376;2023-08-21T11:37:09;36.70;35.20
9448;DHT22;4762;48.128;11.376;2023-08-21T11:39:12;37.00;32.80
9448;DHT22;4762;48.128;11.376;2023-08-21T11:41:14;36.70;33.70
9448;DHT22;4762;48.128;11.376;2023-08-21T11:43:16;38.20;32.70
9448;DHT22;4762;48.128;11.376;2023-08-21T11:45:20;38.70;32.90
9448;DHT22;4762;48.128;11.376;2023-08-21T11:47:23;37.50;32.00
9448;DHT22;4762;48.128;11.376;2023-08-21T11:49:25;37.00;33.70
9448;DHT22;4762;48.128;11.376;2023-08-21T11:51:27;36.80;33.80
9448;DHT22;4762;48.128;11.376;2023-08-21T11:53:35;36.60;34.30
9448;DHT22;4762;48.128;11.376;2023-08-21T11:55:37;37.30;34.90
9448;DHT22;4762;48.128;11.376;2023-08-21T11:57:46;37.20;32.70
9448;DHT22;4762;48.128;11.376;2023-08-21T11:59:50;38.70;32.70
9448;DHT22;4762;48.128;11.376;2023-08-21T12:01:51;37.50;34.30
9448;DHT22;4762;48.128;11.376;2023-08-21T12:03:55;38.20;32.90
9448;DHT22;4762;48.128;11.376;2023-08-21T12:05:59;36.90;33.50
9448;DHT22;4762;48.128;11.376;2023-08-21T12:08:01;37.50;33.90
9448;DHT22;4762;48.128;11.376;2023-08-21T12:10:04;37.70;32.10
9448;DHT22;4762;48.128;11.376;2023-08-21T12:12:06;37.60;32.50
9448;DHT22;4762;48.128;11.376;2023-08-21T12:14:09;37.70;32.00
9448;DHT22;4762;48.128;11.376;2023-08-21T12:16:12;38.30;31.10
9448;DHT22;4762;48.128;11.376;2023-08-21T12:18:14;37.20;31.40
9448;DHT22;4762;48.128;11.376;2023-08-21T12:20:17;36.90;31.60
9448;DHT22;4762;48.128;11.376;2023-08-21T12:22:19;36.40;31.60
9448;DHT22;4762;48.128;11.376;2023-08-21T12:24:21;36.80;32.20
9448;DHT22;4762;48.128;11.376;2023-08-21T12:26:23;37.10;32.10
9448;DHT22;4762;48.128;11.376;2023-08-21T12:28:26;37.40;31.10
9448;DHT22;4762;48.128;11.376;2023-08-21T12:30:28;37.30;32.10
9448;DHT22;4762;48.128;11.376;2023-08-21T12:32:30;38.50;31.10
9448;DHT22;4762;48.128;11.376;2023-08-21T12:34:32;38.60;30.00
9448;DHT22;4762;48.128;11.376;2023-08-21T12:36:35;38.00;30.00
9448;DHT22;4762;48.128;11.376;2023-08-21T12:38:37;37.80;30.60
9448;DHT22;4762;48.128;11.376;2023-08-21T12:40:39;37.10;31.20
9448;DHT22;4762;48.128;11.376;2023-08-21T12:42:41;37.30;32.30
9448;DHT22;4762;48.128;11.376;2023-08-21T12:44:43;38.10;32.00
9448;DHT22;4762;48.128;11.376;2023-08-21T12:46:46;38.20;31.10
9448;DHT22;4762;48.128;11.376;2023-08-21T12:48:48;38.40;31.10
9448;DHT22;4762;48.128;11.376;2023-08-21T12:50:50;38.00;31.70
9448;DHT22;4762;48.128;11.376;2023-08-21T12:52:52;38.00;31.40
9448;DHT22;4762;48.128;11.376;2023-08-21T12:54:54;38.60;30.40
9448;DHT22;4762;48.128;11.376;2023-08-21T12:56:57;38.50;31.00
9448;DHT22;4762;48.128;11.376;2023-08-21T12:58:59;39.10;30.10
9448;DHT22;4762;48.128;11.376;2023-08-21T13:01:01;38.60;29.70
9448;DHT22;4762;48.128;11.376;2023-08-21T13:03:03;39.20;29.80
9448;DHT22;4762;48.128;11.376;2023-08-21T13:05:06;39.20;29.60
9448;DHT22;4762;48.128;11.376;2023-08-21T13:07:08;38.90;29.80